createdAt,value
2023-03-29T00:09:31.691Z,2.96
2023-03-29T00:42:56.543Z,2.95
2023-03-29T00:54:03.128Z,2.94
2023-03-29T01:05:08.163Z,2.94
2023-03-29T01:16:14.150Z,2.94
2023-03-29T01:27:20.725Z,2.93
2023-03-29T01:38:27.153Z,2.92
2023-03-29T01:49:29.140Z,2.92
2023-03-29T02:00:34.192Z,2.92
2023-03-29T02:11:43.263Z,2.92
2023-03-29T02:22:52.391Z,2.91
2023-03-29T02:33:50.406Z,2.91
2023-03-29T02:44:53.825Z,2.91
2023-03-29T02:56:00.545Z,2.91
2023-03-29T03:07:09.832Z,2.90
2023-03-29T03:18:14.736Z,2.90
2023-03-29T03:29:22.830Z,2.90
2023-03-29T03:40:29.865Z,2.90
2023-03-29T03:51:29.302Z,2.89
2023-03-29T04:02:38.635Z,2.90
2023-03-29T04:13:19.979Z,2.89
2023-03-29T04:24:32.603Z,2.90
2023-03-29T04:35:47.150Z,2.89
2023-03-29T04:46:57.881Z,2.88
2023-03-29T04:58:06.450Z,2.88
2023-03-29T05:09:19.006Z,2.89
2023-03-29T05:20:22.785Z,2.89
2023-03-29T05:31:28.135Z,2.92
2023-03-29T05:42:38.530Z,2.95
2023-03-29T05:53:44.250Z,2.96
2023-03-29T06:04:45.741Z,2.97
2023-03-29T06:15:48.865Z,2.99
2023-03-29T06:26:49.734Z,3.00
2023-03-29T06:37:52.295Z,3.02
2023-03-29T06:48:55.027Z,3.04
2023-03-29T06:59:56.673Z,3.07
2023-03-29T07:10:53.273Z,3.11
2023-03-29T07:21:52.130Z,3.14
2023-03-29T07:32:51.340Z,3.15
2023-03-29T07:43:55.728Z,3.18
2023-03-29T07:54:56.207Z,3.25
2023-03-29T08:05:56.225Z,3.28
2023-03-29T08:16:55.058Z,3.30
2023-03-29T08:27:55.755Z,3.33
2023-03-29T08:38:54.870Z,3.27
2023-03-29T08:49:54.206Z,3.26
2023-03-29T09:00:54.746Z,3.27
2023-03-29T09:11:54.973Z,3.26
2023-03-29T09:22:55.786Z,3.27
2023-03-29T09:33:51.278Z,3.29
2023-03-29T09:44:51.284Z,3.28
2023-03-29T09:55:52.211Z,3.29
2023-03-29T10:06:52.684Z,3.28
2023-03-29T10:17:53.056Z,3.29
2023-03-29T10:28:53.098Z,3.29
2023-03-29T10:39:51.121Z,3.28
2023-03-29T10:50:49.920Z,3.30
2023-03-29T11:01:50.500Z,3.30
2023-03-29T11:12:46.847Z,3.30
2023-03-29T11:23:41.796Z,3.29
2023-03-29T11:34:40.254Z,3.30
2023-03-29T11:45:40.425Z,3.32
2023-03-29T11:56:42.561Z,3.32
2023-03-29T12:07:34.183Z,3.37
2023-03-29T12:18:39.219Z,3.40
2023-03-29T12:29:43.552Z,3.34
2023-03-29T12:40:40.875Z,3.34
2023-03-29T12:51:35.778Z,3.34
2023-03-29T13:02:35.112Z,3.34
2023-03-29T13:13:33.076Z,3.32
2023-03-29T13:24:31.458Z,3.32
2023-03-29T13:35:18.655Z,3.34
2023-03-29T13:46:13.712Z,3.34
2023-03-29T13:57:14.574Z,3.34
2023-03-29T14:08:14.740Z,3.34
2023-03-29T14:19:05.108Z,3.38
2023-03-29T14:30:06.654Z,3.39
2023-03-29T14:41:14.345Z,3.41
2023-03-29T14:52:11.225Z,3.33
2023-03-29T15:03:14.542Z,3.39
2023-03-29T15:14:09.073Z,3.37
2023-03-29T15:25:06.521Z,3.33
2023-03-29T15:35:50.037Z,3.33
2023-03-29T15:46:45.401Z,3.32
2023-03-29T15:57:41.759Z,3.33
2023-03-29T16:08:40.026Z,3.34
2023-03-29T16:19:36.510Z,3.34
2023-03-29T16:30:33.337Z,3.33
2023-03-29T16:41:21.088Z,3.34
2023-03-29T16:52:19.892Z,3.30
2023-03-29T17:03:15.213Z,3.28
2023-03-29T17:14:13.583Z,3.26
2023-03-29T17:25:14.141Z,3.25
2023-03-29T17:36:14.496Z,3.24
2023-03-29T17:47:10.989Z,3.23
2023-03-29T17:58:10.425Z,3.22
2023-03-29T18:09:10.371Z,3.21
2023-03-29T18:20:10.291Z,3.20
2023-03-29T18:31:09.259Z,3.19
2023-03-29T18:42:05.692Z,3.18
2023-03-29T18:52:57.011Z,3.17
2023-03-29T19:03:55.622Z,3.15
2023-03-29T19:14:41.876Z,3.15
2023-03-29T19:25:41.532Z,3.14
2023-03-29T19:36:38.620Z,3.13
2023-03-29T19:47:25.657Z,3.11
2023-03-29T19:58:17.691Z,3.10
2023-03-29T20:09:15.197Z,3.10
2023-03-29T20:20:15.704Z,3.09
2023-03-29T20:31:12.389Z,3.08
2023-03-29T20:42:10.214Z,3.07
2023-03-29T20:53:05.330Z,3.06
2023-03-29T21:03:57.378Z,3.05
2023-03-29T21:14:48.718Z,3.04
2023-03-29T21:25:48.087Z,3.04
2023-03-29T21:36:44.703Z,3.03
2023-03-29T21:47:41.730Z,3.03
2023-03-29T21:58:38.025Z,3.02
2023-03-29T22:09:31.427Z,3.02
2023-03-29T22:20:28.406Z,3.00
2023-03-29T22:31:31.093Z,3.00
2023-03-29T22:42:25.072Z,2.99
2023-03-29T22:53:27.378Z,2.99
2023-03-29T23:04:29.812Z,2.99
2023-03-29T23:15:30.943Z,2.99
2023-03-29T23:26:32.325Z,2.99
2023-03-29T23:37:34.519Z,2.99
2023-03-29T23:48:31.901Z,2.99
2023-03-29T23:59:34.433Z,2.98
